Time;durP1;ratioP1;P1;durP2;ratioP2;P2;SDS_P1;SDS_P2;PMS_P1;PMS_P2;Temp;Humidity;BMP_temperature;BMP_pressure;BME280_temperature;BME280_humidity;BME280_pressure;Samples;Min_cycle;Max_cycle;Signal;HPM_P1;HPM_P2
2023/01/22 00:02:57;;;;;;;1999.90;999.90;;;;;;;-1.78;100.00;103265.84;10416072;28;20400;-66
2023/01/22 00:08:00;;;;;;;1999.90;999.90;;;;;;;-1.84;100.00;103260.53;10415055;28;20053;-67
2023/01/22 00:13:02;;;;;;;1999.90;999.90;;;;;;;-1.85;100.00;103269.91;10414628;28;20485;-67
2023/01/22 00:18:04;;;;;;;1999.90;999.90;;;;;;;-1.93;100.00;103259.41;10415328;28;20484;-67
2023/01/22 00:23:06;;;;;;;1999.90;999.90;;;;;;;-1.92;100.00;103262.81;10382062;28;20566;-67
2023/01/22 00:28:09;;;;;;;1999.90;999.90;;;;;;;-1.74;100.00;103255.75;10374272;28;20489;-66
2023/01/22 00:33:11;;;;;;;1999.90;999.90;;;;;;;-1.91;100.00;103262.88;10409410;28;20489;-66
2023/01/22 00:38:13;;;;;;;1999.90;999.90;;;;;;;-2.04;100.00;103260.72;10415298;28;20440;-66
2023/01/22 00:43:16;;;;;;;1999.90;999.90;;;;;;;-2.17;100.00;103266.25;10415348;28;20075;-66
2023/01/22 00:48:18;;;;;;;1999.90;999.90;;;;;;;-2.04;100.00;103263.28;10414458;28;20053;-66
2023/01/22 00:53:20;;;;;;;1999.90;999.90;;;;;;;-2.06;100.00;103249.53;10414507;28;20448;-66
2023/01/22 00:58:23;;;;;;;1999.90;999.90;;;;;;;-2.00;100.00;103256.56;10414988;28;20500;-66
2023/01/22 01:03:31;;;;;;;1999.90;999.90;;;;;;;-1.70;100.00;103249.91;10414743;28;20049;-66
2023/01/22 01:08:36;;;;;;;1999.90;999.90;;;;;;;-1.64;100.00;103246.66;10422513;28;20107;-66
2023/01/22 01:13:42;;;;;;;1999.90;999.90;;;;;;;-1.73;100.00;103234.38;10421421;28;20136;-67
2023/01/22 01:18:45;;;;;;;1999.90;999.90;;;;;;;-1.88;100.00;103233.88;10420991;28;20485;-66
2023/01/22 01:23:47;;;;;;;1999.90;999.90;;;;;;;-1.95;100.00;103234.47;10422481;28;20088;-66
2023/01/22 01:28:52;;;;;;;1999.90;999.90;;;;;;;-1.99;100.00;103243.78;10421463;28;20049;-66
2023/01/22 01:33:55;;;;;;;1999.90;999.90;;;;;;;-1.73;100.00;103248.91;10420172;28;20116;-66
2023/01/22 01:38:57;;;;;;;1999.90;999.90;;;;;;;-1.55;100.00;103252.06;10380642;28;20054;-66
2023/01/22 01:44:19;;;;;;;1999.90;999.90;;;;;;;-1.48;100.00;103249.69;10404587;28;20072;-67
2023/01/22 01:49:28;;;;;;;1999.90;999.90;;;;;;;-1.26;100.00;103247.00;10419832;28;20058;-66
2023/01/22 01:54:31;;;;;;;1999.90;999.90;;;;;;;-1.02;100.00;103244.28;10436803;28;20049;-66
2023/01/22 01:59:34;;;;;;;1999.90;999.90;;;;;;;-1.27;100.00;103234.09;10420042;28;20054;-66
2023/01/22 02:04:37;;;;;;;1999.90;999.90;;;;;;;-0.96;100.00;103236.78;10419650;28;20057;-66
2023/01/22 02:09:39;;;;;;;1999.90;999.90;;;;;;;-1.04;100.00;103229.63;10419947;28;20056;-66
2023/01/22 02:14:44;;;;;;;1999.90;999.90;;;;;;;-1.06;100.00;103219.34;10420450;28;20099;-66
2023/01/22 02:19:47;;;;;;;1999.90;999.90;;;;;;;-1.03;100.00;103214.25;10418695;28;20053;-66
2023/01/22 02:24:49;;;;;;;1999.90;999.90;;;;;;;-0.72;100.00;103209.13;10419336;28;20091;-66
2023/01/22 02:29:52;;;;;;;1999.90;999.90;;;;;;;-0.72;100.00;103202.28;10417944;28;20107;-67
2023/01/22 02:34:54;;;;;;;1999.90;999.90;;;;;;;-0.67;100.00;103203.28;10418892;28;20385;-66
2023/01/22 02:39:56;;;;;;;1999.90;999.90;;;;;;;-0.51;100.00;103217.44;10417548;28;20451;-66
2023/01/22 02:44:59;;;;;;;1999.90;999.90;;;;;;;-0.47;100.00;103226.13;10419387;28;20085;-66
2023/01/22 02:50:02;;;;;;;1999.90;999.90;;;;;;;-0.70;100.00;103222.91;10427081;23;20053;-65
2023/01/22 02:55:05;;;;;;;1999.90;999.90;;;;;;;-0.73;100.00;103223.69;10418164;28;20577;-66
2023/01/22 03:00:08;;;;;;;1999.90;999.90;;;;;;;-0.89;100.00;103219.81;10416618;28;20053;-65
2023/01/22 03:05:10;;;;;;;1999.90;999.90;;;;;;;-0.67;100.00;103208.44;10433157;28;20103;-65
2023/01/22 03:10:16;;;;;;;1999.90;999.90;;;;;;;-0.94;100.00;103199.09;10418490;28;20057;-65
2023/01/22 03:26:00;;;;;;;1999.90;999.90;;;;;;;-1.21;100.00;103200.84;10417501;28;20053;-65
2023/01/22 03:31:03;;;;;;;1999.90;999.90;;;;;;;-1.13;100.00;103210.56;10414687;28;20107;-65
2023/01/22 03:36:08;;;;;;;1999.90;999.90;;;;;;;-1.03;100.00;103198.81;10432788;28;20041;-66
2023/01/22 03:41:15;;;;;;;1999.90;999.90;;;;;;;-0.86;100.00;103201.03;10432616;28;20049;-65
2023/01/22 03:46:19;;;;;;;1999.90;999.90;;;;;;;-0.90;100.00;103191.47;10430972;28;20053;-65
2023/01/22 03:51:21;;;;;;;1999.90;999.90;;;;;;;-0.74;100.00;103185.91;10415661;28;20060;-65
2023/01/22 03:56:25;;;;;;;1999.90;999.90;;;;;;;-0.88;100.00;103193.25;10415596;28;20055;-65
2023/01/22 04:01:28;;;;;;;1999.90;999.90;;;;;;;-0.68;100.00;103190.38;10415693;28;20084;-65
2023/01/22 04:06:30;;;;;;;1999.90;999.90;;;;;;;-0.95;100.00;103197.34;10416386;28;20176;-65
2023/01/22 04:11:32;;;;;;;1999.90;999.90;;;;;;;-0.75;100.00;103191.91;10416120;28;20477;-65
2023/01/22 04:16:35;;;;;;;1999.90;999.90;;;;;;;-0.59;100.00;103191.53;10415326;28;20048;-65
2023/01/22 04:21:37;;;;;;;1999.90;999.90;;;;;;;-0.69;100.00;103175.75;10415945;28;20138;-65
2023/01/22 04:26:39;;;;;;;1999.90;999.90;;;;;;;-0.76;100.00;103174.72;10415737;28;20076;-65
2023/01/22 04:31:42;;;;;;;1999.90;999.90;;;;;;;-0.59;100.00;103175.19;10413690;28;20053;-65
2023/01/22 04:36:44;;;;;;;1999.90;999.90;;;;;;;-0.61;100.00;103180.28;10414962;28;20043;-65
2023/01/22 04:41:47;;;;;;;1999.90;999.90;;;;;;;-0.68;100.00;103167.22;10430432;28;20053;-65
2023/01/22 04:46:49;;;;;;;1999.90;999.90;;;;;;;-0.83;100.00;103175.38;10414515;28;20057;-65
2023/01/22 04:51:52;;;;;;;1999.90;999.90;;;;;;;-0.56;100.00;103178.72;10415132;28;20053;-65
2023/01/22 04:56:55;;;;;;;1999.90;999.90;;;;;;;-0.50;100.00;103166.88;10409202;28;20440;-65
2023/01/22 05:01:57;;;;;;;1999.90;999.90;;;;;;;-0.57;100.00;103170.97;10374194;28;20421;-65
2023/01/22 05:06:59;;;;;;;1999.90;999.90;;;;;;;-0.45;100.00;103167.84;10373513;28;20050;-65
2023/01/22 05:12:02;;;;;;;1999.90;999.90;;;;;;;-0.39;100.00;103171.47;10380706;28;20053;-65
2023/01/22 05:17:05;;;;;;;1999.90;999.90;;;;;;;-0.48;100.00;103176.34;10414853;28;20096;-65
2023/01/22 05:22:07;;;;;;;1999.90;999.90;;;;;;;-0.48;100.00;103176.34;10413914;28;20111;-65
2023/01/22 05:27:09;;;;;;;1999.90;999.90;;;;;;;-0.31;100.00;103174.22;10413931;28;20103;-65
2023/01/22 05:32:12;;;;;;;1999.90;999.90;;;;;;;-0.34;100.00;103181.00;10429786;28;20107;-65
2023/01/22 05:37:15;;;;;;;1999.90;999.90;;;;;;;-0.39;100.00;103186.91;10412858;28;20554;-65
2023/01/22 05:42:17;;;;;;;1999.90;999.90;;;;;;;-0.45;100.00;103185.88;10414173;28;20095;-65
2023/01/22 05:47:19;;;;;;;1999.90;999.90;;;;;;;-0.69;100.00;103188.63;10414164;28;20045;-65
2023/01/22 05:52:22;;;;;;;1999.90;999.90;;;;;;;-0.40;100.00;103190.31;10416467;28;20049;-65
2023/01/22 05:57:25;;;;;;;1999.90;999.90;;;;;;;-0.23;100.00;103189.88;10421288;28;20076;-65
2023/01/22 06:02:28;;;;;;;1999.90;999.90;;;;;;;-0.46;100.00;103202.13;10420519;28;20447;-65
2023/01/22 06:07:30;;;;;;;1999.90;999.90;;;;;;;-0.29;100.00;103189.72;10419374;28;20472;-65
2023/01/22 06:12:33;;;;;;;1999.90;999.90;;;;;;;-0.57;100.00;103183.84;10419288;28;20046;-65
2023/01/22 06:17:36;;;;;;;1999.90;999.90;;;;;;;-0.31;100.00;103178.50;10419838;28;20057;-65
2023/01/22 06:22:38;;;;;;;1999.90;999.90;;;;;;;-0.15;100.00;103192.63;10420388;28;20045;-65
2023/01/22 06:27:40;;;;;;;1999.90;999.90;;;;;;;-0.22;100.00;103199.31;10417397;28;20451;-65
2023/01/22 06:32:42;;;;;;;1999.90;999.90;;;;;;;-0.58;100.00;103189.81;10419315;28;20052;-65
2023/01/22 06:37:46;;;;;;;1999.90;999.90;;;;;;;-0.34;100.00;103181.00;10419864;28;20087;-65
2023/01/22 06:42:48;;;;;;;1999.90;999.90;;;;;;;-0.45;100.00;103186.72;10416939;28;20504;-65
2023/01/22 06:47:50;;;;;;;1999.90;999.90;;;;;;;-0.23;100.00;103189.88;10417799;28;20042;-65
2023/01/22 06:52:53;;;;;;;1999.90;999.90;;;;;;;-0.20;100.00;103184.81;10418544;28;20111;-65
2023/01/22 06:57:55;;;;;;;1999.90;999.90;;;;;;;-0.14;100.00;103191.81;10417975;28;20049;-65
2023/01/22 07:02:58;;;;;;;1999.90;999.90;;;;;;;-0.28;100.00;103194.91;10416782;28;20488;-65
2023/01/22 07:08:00;;;;;;;1999.90;999.90;;;;;;;-0.27;100.00;103198.34;10418463;28;20057;-65
2023/01/22 07:13:03;;;;;;;1999.90;999.90;;;;;;;-0.13;100.00;103193.56;10417587;28;20049;-65
2023/01/22 07:18:05;;;;;;;1999.90;999.90;;;;;;;-0.33;100.00;103211.94;10418215;28;20048;-65
2023/01/22 07:23:08;;;;;;;1999.90;999.90;;;;;;;-0.30;100.00;103214.59;10416476;28;20562;-65
2023/01/22 07:28:16;;;;;;;1999.90;999.90;;;;;;;-0.32;100.00;103215.38;10416548;28;20057;-65
2023/01/22 07:33:18;;;;;;;1999.90;999.90;;;;;;;-0.51;100.00;103203.72;10417005;28;20055;-65
2023/01/22 07:38:21;;;;;;;1999.90;999.90;;;;;;;-0.25;100.00;103217.28;10416742;28;20045;-65
2023/01/22 07:43:23;;;;;;;1999.90;999.90;;;;;;;-0.11;100.00;103210.78;10417230;28;20072;-65
2023/01/22 07:48:25;;;;;;;1999.90;999.90;;;;;;;0.03;100.00;103211.13;10417196;28;20049;-65
2023/01/22 07:53:28;;;;;;;1999.90;999.90;;;;;;;-0.11;100.00;103200.47;10415449;28;20115;-65
2023/01/22 07:58:30;;;;;;;1999.90;999.90;;;;;;;0.06;100.00;103218.06;10415345;28;20063;-66
2023/01/22 08:03:33;;;;;;;1999.90;999.90;;;;;;;0.08;100.00;103209.53;10415940;28;20392;-64
2023/01/22 08:08:36;;;;;;;1999.90;999.90;;;;;;;-0.13;100.00;103221.91;10414588;28;20072;-64
2023/01/22 08:13:38;;;;;;;1999.90;999.90;;;;;;;0.18;100.00;103231.25;10413440;28;20049;-64
2023/01/22 08:18:40;;;;;;;1999.90;999.90;;;;;;;0.40;100.00;103224.91;10415446;28;20053;-64
2023/01/22 08:23:43;;;;;;;1999.90;999.90;;;;;;;-0.04;100.00;103227.25;10394692;28;20054;-64
2023/01/22 08:28:50;;;;;;;1999.90;999.90;;;;;;;0.14;100.00;103230.31;10375175;28;20045;-64
2023/01/22 08:33:52;;;;;;;1999.90;999.90;;;;;;;0.49;100.00;103225.16;10374196;28;20432;-64
2023/01/22 08:38:54;;;;;;;1999.90;999.90;;;;;;;0.46;100.00;103240.53;10402538;28;20049;-64
2023/01/22 08:43:57;;;;;;;1999.90;999.90;;;;;;;0.13;100.00;103231.13;10414828;28;20378;-64
2023/01/22 08:48:59;;;;;;;1999.90;999.90;;;;;;;0.05;100.00;103229.19;10414235;28;20111;-64
2023/01/22 08:54:01;;;;;;;1999.90;999.90;;;;;;;0.16;100.00;103238.94;10402194;28;20053;-65
2023/01/22 08:59:05;;;;;;;1999.90;999.90;;;;;;;0.30;100.00;103238.41;10413015;28;20056;-64
2023/01/22 09:04:09;;;;;;;1999.90;999.90;;;;;;;0.22;100.00;103242.50;10391460;28;20420;-65
2023/01/22 09:09:11;;;;;;;1999.90;999.90;;;;;;;0.23;100.00;103244.25;10373521;28;20386;-65
2023/01/22 09:14:14;;;;;;;1999.90;999.90;;;;;;;0.21;100.00;103243.34;10412440;28;20523;-65
2023/01/22 09:19:16;;;;;;;1999.90;999.90;;;;;;;0.20;100.00;103236.44;10414826;28;20125;-65
2023/01/22 09:24:19;;;;;;;1999.90;999.90;;;;;;;0.18;100.00;103233.81;10404901;28;20052;-64
2023/01/22 09:29:21;;;;;;;1999.90;999.90;;;;;;;0.31;100.00;103230.72;10387276;28;20046;-64
2023/01/22 09:34:24;;;;;;;1999.90;999.90;;;;;;;0.35;100.00;103239.41;10417423;28;20061;-64
2023/01/22 09:39:26;;;;;;;1999.90;999.90;;;;;;;0.22;100.00;103245.06;10401764;28;20050;-65
2023/01/22 09:44:36;;;;;;;1999.90;999.90;;;;;;;0.16;100.00;103245.81;10401981;28;20607;-65
2023/01/22 09:49:55;;;;;;;1999.90;999.90;;;;;;;0.17;100.00;103243.28;10392659;28;20412;-64
2023/01/22 09:54:57;;;;;;;1999.90;999.90;;;;;;;0.38;100.00;103254.06;10417652;28;20069;-65
2023/01/22 10:00:00;;;;;;;1999.90;999.90;;;;;;;0.53;100.00;103249.28;10419293;28;20053;-64
2023/01/22 10:05:31;;;;;;;1999.90;999.90;;;;;;;0.24;100.00;103259.75;10420465;28;20053;-65
2023/01/22 10:10:33;;;;;;;1999.90;999.90;;;;;;;0.38;100.00;103257.50;10419256;28;20488;-65
2023/01/22 10:15:36;;;;;;;1999.90;999.90;;;;;;;0.35;100.00;103265.16;10419417;28;20056;-65
2023/01/22 10:20:39;;;;;;;1999.90;999.90;;;;;;;0.33;100.00;103264.25;10418756;28;20056;-65
2023/01/22 10:25:42;;;;;;;1999.90;999.90;;;;;;;0.62;100.00;103264.09;10419095;28;20099;-65
2023/01/22 10:30:48;;;;;;;1999.90;999.90;;;;;;;0.40;100.00;103261.00;10420153;28;20056;-65
2023/01/22 10:35:55;;;;;;;1999.90;999.90;;;;;;;0.42;100.00;103253.31;10417333;28;20049;-66
2023/01/22 10:41:03;;;;;;;1999.90;999.90;;;;;;;0.35;100.00;103242.88;10434314;28;20493;-66
2023/01/22 10:46:16;;;;;;;1999.90;999.90;;;;;;;0.57;100.00;103247.66;10433555;28;20042;-65
2023/01/22 10:51:21;;;;;;;1999.90;999.90;;;;;;;0.80;100.00;103243.03;10417329;28;20084;-65
2023/01/22 10:56:38;;;;;;;1999.90;999.90;;;;;;;0.78;100.00;103243.00;10433885;28;20404;-65
2023/01/22 11:01:44;;;;;;;1999.90;999.90;;;;;;;0.68;100.00;103243.63;10434229;28;20069;-65
2023/01/22 11:07:21;;;;;;;1999.90;999.90;;;;;;;0.88;100.00;103244.06;10432024;28;20049;-65
2023/01/22 11:12:30;;;;;;;1999.90;999.90;;;;;;;1.01;100.00;103229.72;10417894;28;20049;-66
2023/01/22 11:17:41;;;;;;;1999.90;999.90;;;;;;;0.82;100.00;103231.03;10416936;28;20046;-66
2023/01/22 11:22:49;;;;;;;1999.90;999.90;;;;;;;1.12;100.00;103233.41;10416612;28;20107;-66
2023/01/22 11:27:52;;;;;;;1999.90;999.90;;;;;;;1.22;100.00;103235.31;10416737;28;20050;-66
2023/01/22 11:33:03;;;;;;;1999.90;999.90;;;;;;;1.21;100.00;103225.88;10417048;28;20128;-66
2023/01/22 11:38:16;;;;;;;1999.90;999.90;;;;;;;1.28;100.00;103232.03;10416926;28;20050;-66
2023/01/22 11:43:30;;;;;;;1999.90;999.90;;;;;;;1.09;100.00;103225.59;10417837;28;20053;-66
2023/01/22 11:48:49;;;;;;;1999.90;999.90;;;;;;;0.85;100.00;103213.91;10415022;28;20092;-67
2023/01/22 11:54:14;;;;;;;1999.90;999.90;;;;;;;1.03;100.00;103210.00;10413673;28;20054;-66
2023/01/22 11:59:54;;;;;;;1999.90;999.90;;;;;;;1.02;100.00;103208.25;10432190;28;20102;-67
2023/01/22 12:05:26;;;;;;;1999.90;999.90;;;;;;;0.91;100.00;103201.16;10416399;28;20046;-67
2023/01/22 12:10:40;;;;;;;1999.90;999.90;;;;;;;0.87;100.00;103206.22;10427073;28;20053;-67
2023/01/22 12:16:19;;;;;;;1999.90;999.90;;;;;;;0.66;100.00;103193.72;10412025;28;20538;-67
2023/01/22 12:21:59;;;;;;;1999.90;999.90;;;;;;;0.89;100.00;103201.94;10416205;28;20140;-67
2023/01/22 12:27:05;;;;;;;1999.90;999.90;;;;;;;1.02;100.00;103200.50;10415295;28;20054;-67
2023/01/22 12:32:11;;;;;;;1999.90;999.90;;;;;;;1.08;100.00;103200.66;10429578;28;20049;-67
2023/01/22 12:37:25;;;;;;;1999.90;999.90;;;;;;;1.24;100.00;103204.41;10413616;28;20056;-67
2023/01/22 12:42:47;;;;;;;1999.90;999.90;;;;;;;0.95;100.00;103206.38;10414497;28;20045;-67
2023/01/22 12:48:19;;;;;;;1999.90;999.90;;;;;;;1.38;100.00;103205.56;10414299;28;20048;-67
2023/01/22 12:53:28;;;;;;;1999.90;999.90;;;;;;;1.20;100.00;103208.63;10413459;28;20061;-67
2023/01/22 12:58:33;;;;;;;1999.90;999.90;;;;;;;1.49;100.00;103208.31;10415714;28;20053;-67
2023/01/22 13:03:36;;;;;;;1999.90;999.90;;;;;;;1.25;100.00;103217.34;10438251;28;20080;-68
2023/01/22 13:08:40;;;;;;;1999.90;999.90;;;;;;;1.29;100.00;103210.50;10421124;28;20095;-67
2023/01/22 13:14:18;;;;;;;1999.90;999.90;;;;;;;1.36;100.00;103209.81;10418029;28;20107;-67
2023/01/22 13:19:27;;;;;;;1999.90;999.90;;;;;;;1.21;100.00;103220.72;10419806;28;20069;-67
2023/01/22 13:24:29;;;;;;;1999.90;999.90;;;;;;;1.15;100.00;103225.72;10421645;28;20107;-68
2023/01/22 13:29:36;;;;;;;1999.90;999.90;;;;;;;1.07;100.00;103220.41;10419355;28;20485;-68
2023/01/22 13:34:38;;;;;;;1999.90;999.90;;;;;;;1.05;100.00;103216.91;10419535;28;20099;-67
2023/01/22 13:39:41;;;;;;;1999.90;999.90;;;;;;;0.97;100.00;103223.63;10420182;28;20049;-67
2023/01/22 13:44:47;;;;;;;1999.90;999.90;;;;;;;1.03;100.00;103222.91;10419500;28;20057;-67
2023/01/22 13:49:50;;;;;;;1999.90;999.90;;;;;;;0.97;100.00;103222.75;10382607;28;20085;-67
2023/01/22 13:54:57;;;;;;;1999.90;999.90;;;;;;;1.11;100.00;103222.22;10418704;28;20053;-67
2023/01/22 14:00:00;;;;;;;1999.90;999.90;;;;;;;1.17;100.00;103226.63;10412891;28;20049;-67
2023/01/22 14:05:03;;;;;;;1999.90;999.90;;;;;;;1.44;100.00;103226.31;10420016;28;20049;-67
2023/01/22 14:10:31;;;;;;;1999.90;999.90;;;;;;;1.06;100.00;103231.56;10420091;28;20053;-67
2023/01/22 14:15:34;;;;;;;1999.90;999.90;;;;;;;1.27;100.00;103236.28;10417904;28;20076;-67
2023/01/22 14:20:40;;;;;;;1999.90;999.90;;;;;;;1.35;100.00;103239.03;10417279;28;20451;-67
2023/01/22 14:25:48;;;;;;;1999.90;999.90;;;;;;;1.42;100.00;103245.19;10419494;28;20064;-67
2023/01/22 14:30:51;;;;;;;1999.90;999.90;;;;;;;1.36;100.00;103245.97;10418323;28;20115;-68
2023/01/22 14:35:54;;;;;;;1999.90;999.90;;;;;;;1.30;100.00;103241.53;10420051;28;20077;-67
2023/01/22 14:40:56;;;;;;;1999.90;999.90;;;;;;;1.29;100.00;103244.97;10419232;28;20060;-67
2023/01/22 14:45:59;;;;;;;1999.90;999.90;;;;;;;1.53;100.00;103243.72;10419363;28;20440;-68
2023/01/22 14:51:08;;;;;;;1999.90;999.90;;;;;;;1.33;100.00;103250.16;10419085;28;20064;-68
2023/01/22 14:56:10;;;;;;;1999.90;999.90;;;;;;;1.40;100.00;103260.66;10419262;28;20053;-68
2023/01/22 15:01:18;;;;;;;1999.90;999.90;;;;;;;1.46;100.00;103259.91;10419049;28;20061;-67
2023/01/22 15:06:21;;;;;;;1999.90;999.90;;;;;;;1.20;100.00;103260.25;10425029;23;20515;-67
2023/01/22 15:11:24;;;;;;;1999.90;999.90;;;;;;;1.29;100.00;103257.88;10400520;28;20060;-67
2023/01/22 15:16:26;;;;;;;1999.90;999.90;;;;;;;1.28;100.00;103255.25;10418562;28;20041;-67
2023/01/22 15:21:28;;;;;;;1999.90;999.90;;;;;;;1.38;100.00;103256.28;10418333;28;20056;-67
2023/01/22 15:26:34;;;;;;;1999.90;999.90;;;;;;;1.02;100.00;103265.00;10416694;28;20052;-67
2023/01/22 15:31:36;;;;;;;1999.90;999.90;;;;;;;1.49;100.00;103257.38;10417943;28;20056;-67
2023/01/22 15:36:39;;;;;;;1999.90;999.90;;;;;;;1.38;100.00;103259.75;10416541;28;20053;-68
2023/01/22 15:41:43;;;;;;;1999.90;999.90;;;;;;;1.26;100.00;103255.22;10416868;28;20053;-67
2023/01/22 15:46:46;;;;;;;1999.90;999.90;;;;;;;1.23;100.00;103262.03;10417280;28;20053;-67
2023/01/22 15:51:48;;;;;;;1999.90;999.90;;;;;;;1.44;100.00;103270.19;10416440;28;20407;-67
2023/01/22 15:56:50;;;;;;;1999.90;999.90;;;;;;;1.52;100.00;103283.28;10415117;28;20484;-67
2023/01/22 16:01:53;;;;;;;1999.90;999.90;;;;;;;1.39;100.00;103270.94;10415653;28;20049;-67
2023/01/22 16:06:55;;;;;;;1999.90;999.90;;;;;;;1.30;100.00;103269.06;10415235;28;20057;-67
2023/01/22 16:11:58;;;;;;;1999.90;999.90;;;;;;;1.29;100.00;103270.78;10414768;28;20053;-67
2023/01/22 16:17:00;;;;;;;1999.90;999.90;;;;;;;1.25;100.00;103268.09;10415942;28;20045;-68
2023/01/22 16:22:02;;;;;;;1999.90;999.90;;;;;;;0.99;100.00;103268.38;10414389;28;20111;-68
2023/01/22 16:27:05;;;;;;;1999.90;999.90;;;;;;;1.16;100.00;103275.63;10414771;28;20046;-68
2023/01/22 16:32:07;;;;;;;1999.90;999.90;;;;;;;1.23;100.00;103272.34;10415814;28;20052;-68
2023/01/22 16:37:09;;;;;;;1999.90;999.90;;;;;;;1.18;100.00;103290.31;10413235;28;20064;-67
2023/01/22 16:42:12;;;;;;;1999.90;999.90;;;;;;;1.06;100.00;103284.88;10372085;28;20424;-67
2023/01/22 16:47:14;;;;;;;1999.90;999.90;;;;;;;1.27;100.00;103290.50;10397145;28;20054;-67
2023/01/22 16:52:16;;;;;;;1999.90;999.90;;;;;;;1.31;100.00;103294.00;10411635;28;20460;-67
2023/01/22 16:57:24;;;;;;;1999.90;999.90;;;;;;;1.32;100.00;103298.34;10402889;28;20068;-67
2023/01/22 17:02:26;;;;;;;1999.90;999.90;;;;;;;1.36;100.00;103294.13;10412691;28;20480;-67
2023/01/22 17:07:29;;;;;;;1999.90;999.90;;;;;;;1.22;100.00;103304.16;10412355;28;20080;-68
2023/01/22 17:12:35;;;;;;;1999.90;999.90;;;;;;;1.13;100.00;103298.78;10404341;28;20050;-68
2023/01/22 17:17:38;;;;;;;1999.90;999.90;;;;;;;1.29;100.00;103306.91;10409710;28;20049;-68
2023/01/22 17:22:41;;;;;;;1999.90;999.90;;;;;;;1.08;100.00;103298.69;10416032;28;20520;-68
2023/01/22 17:27:43;;;;;;;1999.90;999.90;;;;;;;1.16;100.00;103312.63;10395059;28;20409;-68
2023/01/22 17:32:46;;;;;;;1999.90;999.90;;;;;;;1.26;100.00;103313.69;10394134;28;20045;-67
2023/01/22 17:37:49;;;;;;;1999.90;999.90;;;;;;;1.34;100.00;103306.13;10416960;28;20045;-68
2023/01/22 17:42:52;;;;;;;1999.90;999.90;;;;;;;1.31;100.00;103309.50;10370745;28;20057;-68
2023/01/22 17:47:54;;;;;;;1999.90;999.90;;;;;;;1.31;100.00;103314.66;10394254;28;20092;-68
2023/01/22 17:52:56;;;;;;;1999.90;999.90;;;;;;;1.26;100.00;103319.75;10406359;28;20069;-68
2023/01/22 17:57:59;;;;;;;1999.90;999.90;;;;;;;1.33;100.00;103319.84;10374213;28;20404;-68
2023/01/22 18:03:01;;;;;;;1999.90;999.90;;;;;;;1.39;100.00;103320.00;10387502;28;20411;-68
2023/01/22 18:08:04;;;;;;;1999.90;999.90;;;;;;;1.32;100.00;103333.63;10404902;28;20514;-68
2023/01/22 18:13:06;;;;;;;1999.90;999.90;;;;;;;1.52;100.00;103342.66;10419492;28;20057;-68
2023/01/22 18:18:09;;;;;;;1999.90;999.90;;;;;;;1.45;100.00;103331.31;10420967;28;20041;-68
2023/01/22 18:23:13;;;;;;;1999.90;999.90;;;;;;;1.15;100.00;103335.81;10420585;28;20049;-68
2023/01/22 18:28:19;;;;;;;1999.90;999.90;;;;;;;1.45;100.00;103328.75;10418409;28;20535;-68
2023/01/22 18:33:21;;;;;;;1999.90;999.90;;;;;;;1.45;100.00;103340.78;10420032;28;20053;-68
2023/01/22 18:38:26;;;;;;;1999.90;999.90;;;;;;;1.67;100.00;103339.53;10419861;28;20485;-67
2023/01/22 18:43:28;;;;;;;1999.90;999.90;;;;;;;1.58;100.00;103341.91;10419164;28;20447;-68
2023/01/22 18:48:31;;;;;;;1999.90;999.90;;;;;;;1.59;100.00;103346.25;10413006;28;20154;-68
2023/01/22 18:53:34;;;;;;;1999.90;999.90;;;;;;;1.64;100.00;103350.66;10428443;28;20049;-68
2023/01/22 18:58:37;;;;;;;1999.90;999.90;;;;;;;1.68;100.00;103349.00;10426152;28;20496;-68
2023/01/22 19:03:42;;;;;;;1999.90;999.90;;;;;;;1.74;100.00;103343.97;10408933;28;20042;-68
2023/01/22 19:09:04;;;;;;;1999.90;999.90;;;;;;;1.53;100.00;103348.69;10416844;28;20049;-68
2023/01/22 19:14:08;;;;;;;1999.90;999.90;;;;;;;1.72;100.00;103355.13;10417559;28;20081;-67
2023/01/22 19:19:12;;;;;;;1999.90;999.90;;;;;;;1.57;100.00;103355.69;10417417;28;20085;-68
2023/01/22 19:24:17;;;;;;;1999.90;999.90;;;;;;;1.53;100.00;103361.59;10392443;28;20188;-68
2023/01/22 19:29:24;;;;;;;1999.90;999.90;;;;;;;1.41;100.00;103368.25;10412687;28;20048;-68
2023/01/22 19:34:29;;;;;;;1999.90;999.90;;;;;;;1.69;100.00;103362.81;10430669;28;20386;-68
2023/01/22 19:39:32;;;;;;;1999.90;999.90;;;;;;;1.59;100.00;103369.47;10417647;28;20049;-68
2023/01/22 19:44:34;;;;;;;1999.90;999.90;;;;;;;1.57;100.00;103366.88;10430997;28;20053;-68
2023/01/22 19:49:37;;;;;;;1999.90;999.90;;;;;;;1.56;100.00;103372.84;10417703;28;20046;-68
2023/01/22 19:54:46;;;;;;;1999.90;999.90;;;;;;;1.49;100.00;103369.28;10417049;28;20053;-67
2023/01/22 19:59:53;;;;;;;1999.90;999.90;;;;;;;1.62;100.00;103366.97;10416320;28;20104;-67
2023/01/22 20:04:55;;;;;;;1999.90;999.90;;;;;;;1.62;100.00;103369.56;10415933;28;20111;-67
2023/01/22 20:09:58;;;;;;;1999.90;999.90;;;;;;;1.66;100.00;103371.34;10415639;28;20045;-68
2023/01/22 20:15:00;;;;;;;1999.90;999.90;;;;;;;1.67;100.00;103380.84;10430328;28;20046;-67
2023/01/22 20:20:04;;;;;;;1999.90;999.90;;;;;;;1.82;100.00;103388.91;10414896;28;20046;-68
2023/01/22 20:25:10;;;;;;;1999.90;999.90;;;;;;;1.81;100.00;103394.91;10411525;28;20052;-68
2023/01/22 20:30:12;;;;;;;1999.90;999.90;;;;;;;1.71;100.00;103394.69;10430278;28;20064;-68
2023/01/22 20:35:17;;;;;;;1999.90;999.90;;;;;;;1.79;100.00;103399.19;10415810;28;20045;-68
2023/01/22 20:40:20;;;;;;;1999.90;999.90;;;;;;;1.76;100.00;103393.94;10415467;28;20095;-68
2023/01/22 20:45:22;;;;;;;1999.90;999.90;;;;;;;1.70;100.00;103398.09;10396537;28;20111;-68
2023/01/22 20:50:24;;;;;;;1999.90;999.90;;;;;;;1.64;100.00;103398.84;10413476;28;20128;-67
2023/01/22 20:55:27;;;;;;;1999.90;999.90;;;;;;;1.74;100.00;103403.38;10414771;28;20056;-68
2023/01/22 21:00:29;;;;;;;1999.90;999.90;;;;;;;1.69;100.00;103394.66;10430731;28;20041;-67
2023/01/22 21:05:31;;;;;;;1999.90;999.90;;;;;;;1.69;100.00;103398.97;10429731;28;20605;-67
2023/01/22 21:10:34;;;;;;;1999.90;999.90;;;;;;;1.48;100.00;103402.84;10428206;28;20041;-68
2023/01/22 21:15:36;;;;;;;1999.90;999.90;;;;;;;1.63;100.00;103404.84;10413860;28;20080;-67
2023/01/22 21:20:38;;;;;;;1999.90;999.90;;;;;;;1.69;100.00;103405.00;10405721;28;20056;-67
2023/01/22 21:25:41;;;;;;;1999.90;999.90;;;;;;;1.71;100.00;103405.03;10422275;28;20056;-67
2023/01/22 21:30:43;;;;;;;1999.90;999.90;;;;;;;1.67;100.00;103397.22;10420060;28;20095;-67
2023/01/22 21:35:49;;;;;;;1999.90;999.90;;;;;;;1.85;100.00;103404.47;10422323;28;20456;-68
2023/01/22 21:40:51;;;;;;;1999.90;999.90;;;;;;;1.55;100.00;103401.25;10420784;28;20524;-67
2023/01/22 21:51:15;;;;;;;1999.90;999.90;;;;;;;1.57;100.00;103403.00;10420225;28;20053;-68
2023/01/22 21:56:17;;;;;;;1999.90;999.90;;;;;;;1.63;100.00;103410.91;10421682;28;20052;-67
2023/01/22 22:01:21;;;;;;;1999.90;999.90;;;;;;;1.62;100.00;103406.56;10421509;28;20053;-67
2023/01/22 22:06:23;;;;;;;1999.90;999.90;;;;;;;1.60;100.00;103407.38;10433485;28;20057;-68
2023/01/22 22:11:26;;;;;;;1999.90;999.90;;;;;;;1.54;100.00;103407.25;10418298;28;20053;-68
2023/01/22 22:16:28;;;;;;;1999.90;999.90;;;;;;;1.76;100.00;103409.44;10436258;28;20049;-68